This is the latest recevied weather packets stored in our database for station/object KE8WMS. If no packets are shown the sender has not sent any weather packets the latest 10 day(s).
| Time | Temp. | Humidity | Pressure | Rain* | Wind** | Luminosity | Snow |
|---|---|---|---|---|---|---|---|
| 1777999465 | 17.22° C | 75% | 1003.6 hPa | 0 mm | - | 66 W/m² | - |
| 1777999162 | 17.22° C | 74% | 1003.5 hPa | 0 mm | - | 91 W/m² | - |
| 1777998861 | 17.22° C | 74% | 1003.4 hPa | 0 mm | - | 88 W/m² | - |
| 1777998560 | 17.78° C | 73% | 1003.5 hPa | 0 mm | - | 88 W/m² | - |
| 1777998255 | 18.33° C | 71% | 1003.5 hPa | 0 mm | - | 95 W/m² | - |
| 1777997952 | 18.89° C | 67% | 1003.6 hPa | 0 mm | - | 101 W/m² | - |
| 1777997649 | 18.89° C | 66% | 1003.5 hPa | 0 mm | - | 81 W/m² | - |
| 1777997346 | 19.44° C | 66% | 1003.3 hPa | 0 mm | - | 119 W/m² | - |
| 1777997044 | 19.44° C | 66% | 1003.4 hPa | 0 mm | - | 204 W/m² | - |
| 1777996741 | 19.44° C | 66% | 1003.5 hPa | 0 mm | - | 167 W/m² | - |
| 1777996436 | 20° C | 65% | 1003.4 hPa | 0 mm | - | 136 W/m² | - |
| 1777996133 | 20.56° C | 63% | 1003.1 hPa | 0 mm | - | 213 W/m² | - |
| 1777995830 | 21.11° C | 62% | 1002.9 hPa | 0 mm | - | 529 W/m² | - |
| 1777995526 | 20.56° C | 62% | 1002.7 hPa | 0 mm | - | 549 W/m² | - |
| 1777995223 | 20° C | 63% | 1002.6 hPa | 0 mm | - | 494 W/m² | - |
| 1777994921 | 20° C | 63% | 1002.6 hPa | 0 mm | - | 330 W/m² | - |
| 1777994618 | 20° C | 63% | 1002.1 hPa | 0 mm | - | 458 W/m² | - |
| 1777994317 | 20° C | 64% | 1002.1 hPa | 0 mm | - | 426 W/m² | - |
| 1777994014 | 20.56° C | 62% | 1001.9 hPa | 0 mm | - | 486 W/m² | - |
| 1777993712 | 20° C | 63% | 1001.9 hPa | 0 mm | - | 487 W/m² | - |
| 1777993409 | 20° C | 64% | 1002 hPa | 0 mm | - | 451 W/m² | - |
| 1777993103 | 20.56° C | 62% | 1002 hPa | 0 mm | - | 558 W/m² | - |
| 1777992802 | 20° C | 64% | 1002 hPa | 0 mm | - | 544 W/m² | - |
| 1777992499 | 20.56° C | 62% | 1001.9 hPa | 0 mm | - | 568 W/m² | - |
| 1777992197 | 19.44° C | 64% | 1002.1 hPa | 0 mm | - | 533 W/m² | - |
* Rain latest hour (hover to see other rain measurements)
** Current wind speed in m/s (hover to see current wind gust speed)